createdAt,value
2022-07-25T00:01:42.743Z,98596.18
2022-07-25T00:04:10.328Z,98596.30
2022-07-25T00:06:39.441Z,98597.27
2022-07-25T00:09:06.501Z,98599.11
2022-07-25T00:11:33.684Z,98599.30
2022-07-25T00:14:00.557Z,98597.27
2022-07-25T00:16:27.341Z,98595.60
2022-07-25T00:18:54.149Z,98591.84
2022-07-25T00:21:20.828Z,98597.35
2022-07-25T00:23:47.494Z,98595.23
2022-07-25T00:26:14.336Z,98594.35
2022-07-25T00:28:41.181Z,98593.02
2022-07-25T00:31:08.034Z,98595.46
2022-07-25T00:33:34.868Z,98591.45
2022-07-25T00:36:01.636Z,98590.23
2022-07-25T00:38:28.664Z,98586.73
2022-07-25T00:40:55.654Z,98589.34
2022-07-25T00:43:22.971Z,98591.73
2022-07-25T00:45:49.709Z,98587.62
2022-07-25T00:48:16.242Z,98584.03
2022-07-25T00:50:43.032Z,98584.58
2022-07-25T00:53:09.890Z,98587.40
2022-07-25T00:55:37.092Z,98590.98
2022-07-25T00:58:04.519Z,98591.17
2022-07-25T01:00:31.291Z,98592.95
2022-07-25T01:02:58.296Z,98596.21
2022-07-25T01:05:25.154Z,98593.81
2022-07-25T01:07:52.520Z,98591.48
2022-07-25T01:10:19.265Z,98593.67
2022-07-25T01:12:52.905Z,98592.21
2022-07-25T01:15:21.967Z,98591.24
2022-07-25T01:17:49.456Z,98586.55
2022-07-25T01:20:26.680Z,98584.48
2022-07-25T01:22:54.438Z,98588.53
2022-07-25T01:25:22.379Z,98592.37
2022-07-25T01:27:55.203Z,98590.41
2022-07-25T01:30:24.387Z,98586.95
2022-07-25T01:32:52.131Z,98585.34
2022-07-25T01:35:19.394Z,98586.90
2022-07-25T01:37:46.388Z,98583.42
2022-07-25T01:40:14.948Z,98580.80
2022-07-25T01:42:42.689Z,98575.86
2022-07-25T01:45:10.469Z,98575.23
2022-07-25T01:47:37.243Z,98573.10
2022-07-25T01:50:05.149Z,98572.08
2022-07-25T01:52:31.687Z,98574.34
2022-07-25T01:54:58.529Z,98569.52
2022-07-25T01:57:30.086Z,98567.77
2022-07-25T01:59:58.948Z,98567.27
2022-07-25T02:02:26.069Z,98569.46
2022-07-25T02:04:53.001Z,98570.45
2022-07-25T02:07:20.194Z,98570.62
2022-07-25T02:09:46.849Z,98566.14
2022-07-25T02:12:13.672Z,98570.06
2022-07-25T02:14:40.423Z,98569.43
2022-07-25T02:17:07.155Z,98571.41
2022-07-25T02:19:34.131Z,98571.05
2022-07-25T02:22:00.789Z,98571.04
2022-07-25T02:24:27.696Z,98571.04
2022-07-25T02:26:54.466Z,98568.20
2022-07-25T02:29:21.951Z,98567.55
2022-07-25T02:31:49.162Z,98570.08
2022-07-25T02:34:15.802Z,98570.95
2022-07-25T02:36:42.674Z,98569.41
2022-07-25T02:39:09.248Z,98567.29
2022-07-25T02:41:35.927Z,98565.14
2022-07-25T02:44:02.710Z,98566.34
2022-07-25T02:46:29.696Z,98565.01
2022-07-25T02:48:56.674Z,98558.91
2022-07-25T02:51:23.622Z,98560.05
2022-07-25T02:53:57.595Z,98563.71
2022-07-25T02:56:26.205Z,98559.86
2022-07-25T02:58:56.736Z,98563.63
2022-07-25T03:01:23.456Z,98562.13
2022-07-25T03:03:50.321Z,98560.09
2022-07-25T03:06:17.060Z,98558.81
2022-07-25T03:08:43.821Z,98561.52
2022-07-25T03:11:11.898Z,98567.02
2022-07-25T03:13:38.445Z,98568.33
2022-07-25T03:16:05.516Z,98568.45
2022-07-25T03:18:32.124Z,98571.14
2022-07-25T03:20:58.913Z,98570.99
2022-07-25T03:23:25.722Z,98567.15
2022-07-25T03:25:52.670Z,98563.75
2022-07-25T03:28:19.255Z,98563.56
2022-07-25T03:30:46.025Z,98559.02
2022-07-25T03:33:12.623Z,98560.35
2022-07-25T03:35:39.436Z,98565.63
2022-07-25T03:38:05.937Z,98567.43
2022-07-25T03:40:32.612Z,98561.78
2022-07-25T03:42:59.254Z,98560.80
2022-07-25T03:45:25.978Z,98563.80
2022-07-25T03:47:52.749Z,98559.88
2022-07-25T03:50:19.489Z,98562.35
2022-07-25T03:52:46.259Z,98564.50
2022-07-25T03:55:12.960Z,98568.40
2022-07-25T03:57:39.955Z,98565.77
2022-07-25T04:00:09.091Z,98571.78
2022-07-25T04:02:36.851Z,98569.41
2022-07-25T04:05:05.204Z,98570.23
2022-07-25T04:07:32.014Z,98564.17
2022-07-25T04:09:58.658Z,98562.08
2022-07-25T04:12:25.295Z,98557.27
2022-07-25T04:14:51.830Z,98554.95
2022-07-25T04:17:18.608Z,98554.73
2022-07-25T04:19:47.255Z,98552.10
2022-07-25T04:22:14.020Z,98549.48
2022-07-25T04:24:40.970Z,98548.63
2022-07-25T04:27:07.613Z,98551.77
2022-07-25T04:29:34.352Z,98550.21
2022-07-25T04:32:01.069Z,98554.61
2022-07-25T04:34:27.740Z,98543.19
2022-07-25T04:36:54.391Z,98544.51
2022-07-25T04:39:21.069Z,98544.91
2022-07-25T04:41:47.877Z,98546.08
2022-07-25T04:44:14.549Z,98543.04
2022-07-25T04:46:41.397Z,98543.47
2022-07-25T04:49:08.456Z,98538.51
2022-07-25T04:51:35.264Z,98537.80
2022-07-25T04:54:01.826Z,98534.86
2022-07-25T04:56:28.362Z,98529.99
2022-07-25T04:58:54.979Z,98532.02
2022-07-25T05:01:21.763Z,98528.57
2022-07-25T05:03:50.072Z,98532.48
2022-07-25T05:06:18.552Z,98526.05
2022-07-25T05:08:45.360Z,98521.10
2022-07-25T05:11:12.085Z,98517.33
2022-07-25T05:13:38.727Z,98513.36
2022-07-25T05:16:06.036Z,98514.04
2022-07-25T05:18:34.573Z,98512.59
2022-07-25T05:21:01.395Z,98507.80
2022-07-25T05:23:27.967Z,98501.34
2022-07-25T05:25:54.611Z,98496.41
2022-07-25T05:28:21.254Z,98496.62
2022-07-25T05:30:47.894Z,98496.76
2022-07-25T05:33:14.451Z,98492.16
2022-07-25T05:35:41.178Z,98488.50
2022-07-25T05:38:07.827Z,98487.51
2022-07-25T05:40:34.397Z,98486.02
2022-07-25T05:43:03.483Z,98487.05
2022-07-25T05:45:31.370Z,98482.55
2022-07-25T05:47:58.095Z,98481.27
2022-07-25T05:50:24.934Z,98478.03
2022-07-25T05:52:51.697Z,98471.75
2022-07-25T05:55:18.714Z,98471.88
2022-07-25T05:57:45.651Z,98475.11
2022-07-25T06:00:13.166Z,98477.75
2022-07-25T06:02:39.972Z,98473.88
2022-07-25T06:05:06.928Z,98470.25
2022-07-25T06:07:33.774Z,98470.52
2022-07-25T06:10:00.335Z,98468.15
2022-07-25T06:12:27.267Z,98471.45
2022-07-25T06:14:54.048Z,98467.42
2022-07-25T06:17:20.757Z,98469.27
2022-07-25T06:19:47.286Z,98464.31
2022-07-25T06:22:14.631Z,98460.59
2022-07-25T06:24:41.554Z,98459.84
2022-07-25T06:27:08.575Z,98455.79
2022-07-25T06:29:35.161Z,98457.55
2022-07-25T06:32:01.884Z,98460.12
2022-07-25T06:34:28.987Z,98457.02
2022-07-25T06:36:56.754Z,98455.73
2022-07-25T06:39:24.006Z,98455.42
2022-07-25T06:41:50.576Z,98452.54
2022-07-25T06:44:17.197Z,98451.95
2022-07-25T06:46:44.013Z,98448.65
2022-07-25T06:49:10.945Z,98445.27
2022-07-25T06:51:37.838Z,98441.06
2022-07-25T06:54:04.785Z,98438.15
2022-07-25T06:56:31.573Z,98433.77
2022-07-25T06:58:59.590Z,98435.02
2022-07-25T07:01:26.600Z,98430.02
2022-07-25T07:03:53.315Z,98426.39
2022-07-25T07:06:20.173Z,98426.26
2022-07-25T07:08:46.850Z,98423.73
2022-07-25T07:11:13.707Z,98422.64
2022-07-25T07:13:40.404Z,98426.27
2022-07-25T07:16:07.644Z,98428.55
2022-07-25T07:18:34.458Z,98428.33
2022-07-25T07:21:01.125Z,98425.98
2022-07-25T07:23:28.997Z,98420.98
2022-07-25T07:25:57.138Z,98419.92
2022-07-25T07:28:24.034Z,98417.18
2022-07-25T07:33:38.413Z,98424.19
2022-07-25T07:36:05.142Z,98421.01
2022-07-25T07:38:31.995Z,98422.66
2022-07-25T07:40:58.607Z,98415.77
2022-07-25T07:43:29.679Z,98411.73
2022-07-25T07:45:58.544Z,98412.59
2022-07-25T07:48:25.215Z,98407.06
2022-07-25T07:50:52.140Z,98402.30
2022-07-25T07:53:18.786Z,98400.24
2022-07-25T07:55:45.754Z,98395.16
2022-07-25T07:58:15.245Z,98392.19
2022-07-25T08:00:43.283Z,98385.19
2022-07-25T08:03:10.330Z,98381.40
2022-07-25T08:05:43.262Z,98378.39
2022-07-25T08:08:12.481Z,98375.59
2022-07-25T08:10:43.024Z,98375.48
2022-07-25T08:13:30.723Z,98373.95
2022-07-25T08:15:59.860Z,98371.25
2022-07-25T08:18:28.218Z,98370.61
2022-07-25T08:20:54.857Z,98373.27
2022-07-25T08:23:21.729Z,98370.65
2022-07-25T08:25:49.330Z,98365.92
2022-07-25T08:28:16.452Z,98364.09
2022-07-25T08:30:43.784Z,98361.35
2022-07-25T08:33:12.361Z,98357.90
2022-07-25T08:35:40.259Z,98357.54
2022-07-25T08:38:07.468Z,98354.98
2022-07-25T08:40:34.539Z,98358.38
2022-07-25T08:43:01.297Z,98357.92
2022-07-25T08:45:28.952Z,98354.27
2022-07-25T08:47:57.201Z,98358.03
2022-07-25T08:50:27.222Z,98354.17
2022-07-25T08:53:09.936Z,98352.11
2022-07-25T08:55:41.627Z,98354.61
2022-07-25T08:58:08.110Z,98349.94
2022-07-25T09:00:35.074Z,98348.99
2022-07-25T09:03:03.390Z,98347.09
2022-07-25T09:05:31.655Z,98345.72
2022-07-25T09:08:07.555Z,98344.27
2022-07-25T09:10:34.231Z,98346.88
2022-07-25T09:13:03.056Z,98342.36
2022-07-25T09:15:33.010Z,98342.73
2022-07-25T09:18:02.697Z,98337.98
2022-07-25T09:20:42.668Z,98334.67
2022-07-25T09:23:12.021Z,98338.92
2022-07-25T09:25:38.662Z,98339.09
2022-07-25T09:28:17.023Z,98334.38
2022-07-25T09:30:57.742Z,98335.98
2022-07-25T09:33:25.630Z,98330.95
2022-07-25T09:35:53.411Z,98326.15
2022-07-25T09:38:21.399Z,98324.61
2022-07-25T09:40:56.546Z,98321.28
2022-07-25T09:43:35.171Z,98318.02
2022-07-25T09:46:02.071Z,98319.86
2022-07-25T09:48:28.914Z,98312.16
2022-07-25T09:50:55.902Z,98314.69
2022-07-25T09:53:22.476Z,98313.27
2022-07-25T09:55:49.892Z,98308.94
2022-07-25T09:58:16.414Z,98309.82
2022-07-25T10:00:43.701Z,98304.01
2022-07-25T10:03:32.742Z,98303.48
2022-07-25T10:06:14.160Z,98298.80
2022-07-25T10:08:42.161Z,98297.05
2022-07-25T10:11:26.231Z,98296.51
2022-07-25T10:13:54.721Z,98292.13
2022-07-25T10:16:23.769Z,98287.92
2022-07-25T10:18:50.510Z,98283.23
2022-07-25T10:21:26.111Z,98278.59
2022-07-25T10:24:07.978Z,98273.33
2022-07-25T10:26:40.179Z,98271.80
2022-07-25T10:29:11.295Z,98266.75
2022-07-25T10:31:46.142Z,98267.17
2022-07-25T10:34:16.394Z,98269.13
2022-07-25T10:36:48.405Z,98260.14
2022-07-25T10:39:17.402Z,98257.32
2022-07-25T10:41:50.214Z,98254.40
2022-07-25T10:44:17.267Z,98251.80
2022-07-25T10:46:44.915Z,98244.02
2022-07-25T10:49:29.124Z,98246.13
2022-07-25T10:52:00.939Z,98238.38
2022-07-25T10:54:33.465Z,98238.75
2022-07-25T10:57:00.882Z,98232.36
2022-07-25T10:59:38.875Z,98232.07
2022-07-25T11:02:09.312Z,98231.98
2022-07-25T11:04:36.861Z,98226.03
2022-07-25T11:07:15.085Z,98225.23
2022-07-25T11:09:43.221Z,98224.45
2022-07-25T11:12:14.714Z,98219.98
2022-07-25T11:14:43.311Z,98220.37
2022-07-25T11:17:22.126Z,98217.04
2022-07-25T11:19:58.812Z,98214.64
2022-07-25T11:22:26.789Z,98207.30
2022-07-25T11:24:53.941Z,98208.23
2022-07-25T11:27:29.997Z,98207.27
2022-07-25T11:30:17.151Z,98202.77
2022-07-25T11:32:46.853Z,98198.46
2022-07-25T11:35:14.619Z,98191.62
2022-07-25T11:37:44.468Z,98186.55
2022-07-25T11:40:11.126Z,98187.54
2022-07-25T11:42:43.405Z,98185.77
2022-07-25T11:45:36.338Z,98180.30
2022-07-25T11:48:02.858Z,98180.13
2022-07-25T11:50:31.317Z,98179.70
2022-07-25T11:53:06.284Z,98174.39
2022-07-25T11:55:35.359Z,98172.46
2022-07-25T11:58:04.626Z,98172.09
2022-07-25T12:00:39.836Z,98170.34
2022-07-25T12:03:15.582Z,98169.84
2022-07-25T12:05:46.110Z,98169.27
2022-07-25T12:08:21.171Z,98162.48
2022-07-25T12:10:48.995Z,98162.64
2022-07-25T12:13:27.044Z,98157.48
2022-07-25T12:15:55.778Z,98157.73
2022-07-25T12:18:22.593Z,98156.30
2022-07-25T12:20:49.254Z,98150.56
2022-07-25T12:23:15.922Z,98147.05
2022-07-25T12:25:45.090Z,98147.77
2022-07-25T12:28:12.582Z,98140.73
2022-07-25T12:30:40.807Z,98133.19
2022-07-25T12:33:07.711Z,98127.67
2022-07-25T12:35:34.956Z,98129.70
2022-07-25T12:38:01.640Z,98126.17
2022-07-25T12:40:28.280Z,98124.25
2022-07-25T12:42:54.826Z,98117.05
2022-07-25T12:45:21.431Z,98116.23
2022-07-25T12:47:48.363Z,98115.58
2022-07-25T12:50:16.967Z,98113.98
2022-07-25T12:52:44.564Z,98110.63
2022-07-25T12:55:17.916Z,98105.95
2022-07-25T12:57:45.588Z,98103.33
2022-07-25T13:00:15.735Z,98099.82
2022-07-25T13:02:42.605Z,98098.30
2022-07-25T13:05:10.275Z,98097.81
2022-07-25T13:07:37.497Z,98090.54
2022-07-25T13:10:05.752Z,98087.67
2022-07-25T13:12:32.693Z,98088.14
2022-07-25T13:14:59.295Z,98088.88
2022-07-25T13:17:27.689Z,98090.60
2022-07-25T13:19:56.351Z,98086.20
2022-07-25T13:22:24.000Z,98082.05
2022-07-25T13:24:50.824Z,98079.69
2022-07-25T13:27:22.069Z,98076.78
2022-07-25T13:29:48.676Z,98073.64
2022-07-25T13:32:15.888Z,98071.66
2022-07-25T13:34:42.853Z,98069.10
2022-07-25T13:37:09.488Z,98059.52
2022-07-25T13:39:36.276Z,98054.48
2022-07-25T13:42:03.799Z,98055.16
2022-07-25T13:44:30.444Z,98057.45
2022-07-25T13:46:57.747Z,98052.02
2022-07-25T13:49:25.434Z,98048.03
2022-07-25T13:51:52.104Z,98043.02
2022-07-25T13:54:18.953Z,98043.22
2022-07-25T13:56:45.623Z,98039.48
2022-07-25T13:59:17.333Z,98034.66
2022-07-25T14:01:47.347Z,98032.48
2022-07-25T14:04:13.971Z,98029.61
2022-07-25T14:06:40.648Z,98024.05
2022-07-25T14:09:07.782Z,98025.74
2022-07-25T14:11:34.749Z,98020.46
2022-07-25T14:14:01.389Z,98016.49
2022-07-25T14:16:28.041Z,98012.85
2022-07-25T14:18:54.646Z,98014.63
2022-07-25T14:21:21.203Z,98005.66
2022-07-25T14:23:47.892Z,98006.02
2022-07-25T14:26:14.429Z,98000.45
2022-07-25T14:28:40.916Z,98002.55
2022-07-25T14:31:07.636Z,98006.72
2022-07-25T14:33:34.321Z,98001.77
2022-07-25T14:36:00.876Z,97998.34
2022-07-25T14:38:27.840Z,97999.98
2022-07-25T14:40:54.377Z,97998.73
2022-07-25T14:43:20.858Z,97996.29
2022-07-25T14:45:47.425Z,97994.27
2022-07-25T14:48:13.971Z,97987.91
2022-07-25T14:50:40.611Z,97985.84
2022-07-25T14:53:07.238Z,97981.56
2022-07-25T14:55:34.310Z,97978.58
2022-07-25T14:58:00.875Z,97976.23
2022-07-25T15:00:29.606Z,97976.31
2022-07-25T15:02:56.898Z,97973.45
2022-07-25T15:05:23.748Z,97968.41
2022-07-25T15:07:51.625Z,97967.46
2022-07-25T15:10:18.461Z,97964.25
2022-07-25T15:12:45.107Z,97961.97
2022-07-25T15:15:12.055Z,97957.52
2022-07-25T15:17:38.803Z,97953.39
2022-07-25T15:20:06.165Z,97952.86
2022-07-25T15:22:32.729Z,97947.42
2022-07-25T15:27:45.882Z,97943.08
2022-07-25T15:30:13.242Z,97934.76
2022-07-25T15:32:39.874Z,97933.75
2022-07-25T15:35:07.492Z,97932.98
2022-07-25T15:37:34.010Z,97932.88
2022-07-25T15:40:00.696Z,97937.16
2022-07-25T15:42:29.404Z,97936.17
2022-07-25T15:45:22.118Z,97931.98
2022-07-25T15:47:46.277Z,97928.24
2022-07-25T15:50:20.615Z,97929.40
2022-07-25T15:52:47.602Z,97927.69
2022-07-25T15:55:14.550Z,97924.11
2022-07-25T15:57:41.220Z,97922.65
2022-07-25T16:00:09.187Z,97923.85
2022-07-25T16:02:36.222Z,97921.20
2022-07-25T16:05:04.095Z,97920.92
2022-07-25T16:07:30.943Z,97920.72
2022-07-25T16:09:57.592Z,97918.35
2022-07-25T16:12:28.435Z,97918.43
2022-07-25T16:14:56.027Z,97914.89
2022-07-25T16:17:23.421Z,97921.31
2022-07-25T16:19:50.068Z,97920.66
2022-07-25T16:22:16.935Z,97912.90
2022-07-25T16:24:43.472Z,97912.09
2022-07-25T16:27:10.222Z,97909.88
2022-07-25T16:29:37.783Z,97908.70
2022-07-25T16:32:06.058Z,97908.02
2022-07-25T16:34:33.744Z,97908.61
2022-07-25T16:37:01.866Z,97903.95
2022-07-25T16:39:28.675Z,97902.79
2022-07-25T16:41:55.657Z,97905.04
2022-07-25T16:44:22.232Z,97904.04
2022-07-25T16:46:48.922Z,97903.55
2022-07-25T16:49:16.092Z,97900.05
2022-07-25T16:51:43.907Z,97898.86
2022-07-25T16:54:11.978Z,97900.70
2022-07-25T16:56:38.720Z,97893.77
2022-07-25T16:59:06.830Z,97888.71
2022-07-25T17:01:34.530Z,97887.14
2022-07-25T17:04:01.721Z,97887.12
2022-07-25T17:06:28.465Z,97888.16
2022-07-25T17:08:55.084Z,97889.23
2022-07-25T17:11:21.757Z,97890.08
2022-07-25T17:13:48.809Z,97887.38
2022-07-25T17:16:15.672Z,97888.83
2022-07-25T17:18:42.466Z,97887.31
2022-07-25T17:21:09.173Z,97885.08
2022-07-25T17:23:35.786Z,97885.12
2022-07-25T17:26:03.583Z,97884.66
2022-07-25T17:28:30.300Z,97882.23
2022-07-25T17:30:56.939Z,97883.40
2022-07-25T17:33:23.581Z,97881.52
2022-07-25T17:35:50.438Z,97882.55
2022-07-25T17:38:18.402Z,97882.50
2022-07-25T17:40:46.700Z,97879.11
2022-07-25T17:43:13.333Z,97885.79
2022-07-25T17:45:39.871Z,97883.27
2022-07-25T17:48:06.620Z,97881.02
2022-07-25T17:50:33.360Z,97880.75
2022-07-25T17:52:59.969Z,97878.17
2022-07-25T17:55:28.778Z,97879.73
2022-07-25T17:57:56.093Z,97879.59
2022-07-25T18:00:23.932Z,97878.61
2022-07-25T18:02:50.965Z,97875.82
2022-07-25T18:05:18.139Z,97876.80
2022-07-25T18:07:45.725Z,97875.33
2022-07-25T18:10:13.110Z,97875.84
2022-07-25T18:12:39.825Z,97878.63
2022-07-25T18:15:06.929Z,97878.16
2022-07-25T18:17:33.511Z,97879.85
2022-07-25T18:20:00.175Z,97877.55
2022-07-25T18:22:26.889Z,97870.70
2022-07-25T18:24:53.634Z,97870.35
2022-07-25T18:27:20.189Z,97868.46
2022-07-25T18:29:46.772Z,97865.55
2022-07-25T18:32:13.589Z,97868.32
2022-07-25T18:34:40.404Z,97867.08
2022-07-25T18:37:07.066Z,97868.64
2022-07-25T18:39:34.916Z,97870.86
2022-07-25T18:42:01.557Z,97868.23
2022-07-25T18:44:28.232Z,97868.91
2022-07-25T18:46:55.351Z,97864.40
2022-07-25T18:49:22.748Z,97869.92
2022-07-25T18:51:49.840Z,97870.55
2022-07-25T18:54:16.516Z,97870.71
2022-07-25T18:56:43.422Z,97870.21
2022-07-25T18:59:10.353Z,97875.04
2022-07-25T19:01:38.649Z,97873.44
2022-07-25T19:04:05.708Z,97871.46
2022-07-25T19:06:32.693Z,97874.76
2022-07-25T19:08:59.450Z,97876.95
2022-07-25T19:11:26.281Z,97877.01
2022-07-25T19:13:52.861Z,97877.61
2022-07-25T19:16:19.960Z,97876.00
2022-07-25T19:18:47.213Z,97875.85
2022-07-25T19:21:13.975Z,97871.68
2022-07-25T19:23:40.630Z,97873.02
2022-07-25T19:26:07.187Z,97873.45
2022-07-25T19:28:36.158Z,97871.18
2022-07-25T19:31:02.870Z,97871.60
2022-07-25T19:33:35.698Z,97871.11
2022-07-25T19:36:03.050Z,97868.41
2022-07-25T19:38:29.898Z,97865.23
2022-07-25T19:40:56.681Z,97862.44
2022-07-25T19:43:23.346Z,97860.64
2022-07-25T19:45:49.921Z,97853.59
2022-07-25T19:48:16.980Z,97850.95
2022-07-25T19:50:43.561Z,97851.86
2022-07-25T19:53:10.519Z,97850.29
2022-07-25T19:55:37.142Z,97847.61
2022-07-25T19:58:03.731Z,97848.56
2022-07-25T20:00:30.506Z,97850.83
2022-07-25T20:02:57.314Z,97842.52
2022-07-25T20:05:24.421Z,97841.67
2022-07-25T20:07:51.046Z,97846.30
2022-07-25T20:10:18.081Z,97843.41
2022-07-25T20:12:44.971Z,97840.23
2022-07-25T20:15:11.682Z,97844.73
2022-07-25T20:17:38.425Z,97847.79
2022-07-25T20:20:07.082Z,97842.98
2022-07-25T20:22:33.859Z,97841.40
2022-07-25T20:25:00.611Z,97837.69
2022-07-25T20:27:27.182Z,97836.67
2022-07-25T20:29:53.698Z,97834.05
2022-07-25T20:32:20.361Z,97830.82
2022-07-25T20:34:47.181Z,97829.89
2022-07-25T20:37:13.741Z,97836.59
2022-07-25T20:39:40.461Z,97838.77
2022-07-25T20:42:07.463Z,97838.56
2022-07-25T20:44:34.153Z,97838.66
2022-07-25T20:47:00.798Z,97842.74
2022-07-25T20:49:27.666Z,97842.30
2022-07-25T20:51:54.940Z,97842.77
2022-07-25T20:54:21.749Z,97843.42
2022-07-25T20:56:48.595Z,97845.39
2022-07-25T20:59:15.338Z,97846.08
2022-07-25T21:01:42.329Z,97849.36
2022-07-25T21:04:09.231Z,97848.34
2022-07-25T21:06:36.750Z,97850.07
2022-07-25T21:09:04.451Z,97850.81
2022-07-25T21:11:31.198Z,97847.90
2022-07-25T21:13:57.944Z,97847.70
2022-07-25T21:16:25.559Z,97854.11
2022-07-25T21:18:52.265Z,97857.77
2022-07-25T21:21:18.825Z,97853.98
2022-07-25T21:23:45.684Z,97850.54
2022-07-25T21:26:13.337Z,97846.31
2022-07-25T21:28:39.946Z,97848.91
2022-07-25T21:31:06.690Z,97850.83
2022-07-25T21:33:33.200Z,97849.84
2022-07-25T21:35:59.684Z,97853.89
2022-07-25T21:38:28.837Z,97850.10
2022-07-25T21:40:58.070Z,97849.68
2022-07-25T21:43:25.021Z,97855.63
2022-07-25T21:45:51.723Z,97860.75
2022-07-25T21:48:21.998Z,97860.30
2022-07-25T21:50:49.395Z,97856.73
2022-07-25T21:53:17.510Z,97855.73
2022-07-25T21:55:44.177Z,97854.63
2022-07-25T21:58:11.042Z,97851.63
2022-07-25T22:00:43.825Z,97858.84
2022-07-25T22:03:12.692Z,97853.71
2022-07-25T22:05:39.465Z,97847.48
2022-07-25T22:08:06.204Z,97848.25
2022-07-25T22:10:32.859Z,97846.55
2022-07-25T22:12:59.590Z,97849.26
2022-07-25T22:15:26.438Z,97847.46
2022-07-25T22:17:54.103Z,97844.19
2022-07-25T22:20:21.047Z,97840.29
2022-07-25T22:22:48.473Z,97841.34
2022-07-25T22:25:15.999Z,97841.52
2022-07-25T22:27:43.659Z,97839.52
2022-07-25T22:30:16.455Z,97843.48
2022-07-25T22:32:47.086Z,97840.00
2022-07-25T22:35:13.973Z,97836.94
2022-07-25T22:37:40.673Z,97833.55
2022-07-25T22:40:08.106Z,97832.50
2022-07-25T22:42:38.536Z,97832.33
2022-07-25T22:45:05.740Z,97831.80
2022-07-25T22:47:32.847Z,97833.05
2022-07-25T22:49:59.591Z,97835.73
2022-07-25T22:52:26.172Z,97835.39
2022-07-25T22:54:52.878Z,97835.11
2022-07-25T22:57:19.617Z,97835.05
2022-07-25T22:59:46.370Z,97832.02
2022-07-25T23:02:13.033Z,97827.67
2022-07-25T23:04:39.685Z,97821.79
2022-07-25T23:07:06.366Z,97823.88
2022-07-25T23:09:36.587Z,97826.45
2022-07-25T23:12:05.135Z,97826.23
2022-07-25T23:14:32.271Z,97820.40
2022-07-25T23:16:59.066Z,97809.15
2022-07-25T23:19:25.712Z,97810.34
2022-07-25T23:21:52.302Z,97811.48
2022-07-25T23:24:18.946Z,97807.11
2022-07-25T23:26:45.694Z,97800.63
2022-07-25T23:29:12.253Z,97802.27
2022-07-25T23:31:39.004Z,97805.62
2022-07-25T23:34:05.924Z,97803.80
2022-07-25T23:36:32.568Z,97791.55
2022-07-25T23:38:59.265Z,97786.94
2022-07-25T23:41:25.968Z,97786.05
2022-07-25T23:43:59.268Z,97789.27
2022-07-25T23:46:31.043Z,97793.44
2022-07-25T23:48:59.359Z,97794.33
2022-07-25T23:51:26.979Z,97791.70
2022-07-25T23:53:53.627Z,97789.03
2022-07-25T23:56:21.207Z,97782.94
2022-07-25T23:58:48.418Z,97784.61
